Time;durP1;ratioP1;P1;durP2;ratioP2;P2;SDS_P1;SDS_P2;PMS_P1;PMS_P2;Temp;Humidity;BMP_temperature;BMP_pressure;BME280_temperature;BME280_humidity;BME280_pressure;Samples;Min_cycle;Max_cycle;Signal;HPM_P1;HPM_P2
2022/05/31 04:03:50;;;;;;;8.93;5.67;;;7.80;99.90;;;;;;5815451;23;20260;-78
2022/05/31 04:06:19;;;;;;;6.20;5.60;;;7.90;99.90;;;;;;4951405;29;20214;-78
2022/05/31 04:08:47;;;;;;;6.83;5.80;;;7.90;99.90;;;;;;4950393;29;20251;-76
2022/05/31 04:11:15;;;;;;;6.70;5.67;;;7.90;99.90;;;;;;4953938;29;20302;-77
2022/05/31 04:13:43;;;;;;;8.67;5.80;;;7.90;99.90;;;;;;4952392;29;20299;-75
2022/05/31 04:16:15;;;;;;;9.00;5.77;;;8.00;99.90;;;;;;4953709;29;20235;-77
2022/05/31 04:18:52;;;;;;;6.60;5.47;;;8.00;99.90;;;;;;4953166;28;20203;-75
2022/05/31 04:21:20;;;;;;;6.30;5.67;;;8.10;99.90;;;;;;4952329;29;20208;-77
2022/05/31 04:24:08;;;;;;;7.10;5.40;;;8.10;99.90;;;;;;4953408;28;20218;-75
2022/05/31 04:26:40;;;;;;;7.23;5.60;;;8.10;99.90;;;;;;4950902;29;20211;-77
2022/05/31 04:29:08;;;;;;;7.50;5.70;;;8.20;99.90;;;;;;4952712;29;20263;-76
2022/05/31 04:31:36;;;;;;;7.00;5.23;;;8.20;99.90;;;;;;4952935;29;20231;-77
2022/05/31 04:34:06;;;;;;;5.87;4.87;;;8.30;99.90;;;;;;4946035;29;20211;-76
2022/05/31 04:36:35;;;;;;;5.27;4.77;;;8.50;99.90;;;;;;4957916;28;20285;-78
2022/05/31 04:39:04;;;;;;;5.17;4.67;;;8.70;99.90;;;;;;4957112;28;20278;-78
2022/05/31 04:41:33;;;;;;;5.00;4.17;;;8.90;99.90;;;;;;4972967;28;20295;-77
2022/05/31 04:44:04;;;;;;;5.70;4.00;;;9.00;99.90;;;;;;4971992;28;20230;-76
2022/05/31 04:46:35;;;;;;;4.17;3.77;;;9.20;99.90;;;;;;4972550;28;20743;-75
2022/05/31 04:49:04;;;;;;;4.70;4.17;;;9.20;99.90;;;;;;4972553;28;20226;-76
2022/05/31 04:51:35;;;;;;;5.53;4.50;;;9.20;99.90;;;;;;4972807;28;20677;-77
2022/05/31 04:54:03;;;;;;;5.80;4.30;;;9.30;99.90;;;;;;4972622;28;20604;-78
2022/05/31 04:56:32;;;;;;;4.30;3.90;;;9.40;99.90;;;;;;4972727;28;20285;-77
2022/05/31 04:59:00;;;;;;;3.77;3.40;;;9.40;99.90;;;;;;4972867;28;20210;-78
2022/05/31 05:01:29;;;;;;;5.47;3.87;;;9.40;99.90;;;;;;4972942;28;20648;-75
2022/05/31 05:03:58;;;;;;;4.77;3.70;;;9.50;99.90;;;;;;4972229;28;20231;-77
2022/05/31 05:06:31;;;;;;;3.83;3.40;;;9.50;99.90;;;;;;4971466;28;20657;-77
2022/05/31 05:09:00;;;;;;;4.63;3.50;;;9.60;99.90;;;;;;4968975;28;20226;-74
2022/05/31 05:11:28;;;;;;;6.50;3.90;;;9.60;99.90;;;;;;4972162;28;20218;-76
2022/05/31 05:13:57;;;;;;;6.90;4.60;;;9.70;99.90;;;;;;4967753;28;20218;-74
2022/05/31 05:16:27;;;;;;;4.17;3.47;;;9.70;99.90;;;;;;4971268;28;20680;-77
2022/05/31 05:18:56;;;;;;;7.60;3.80;;;9.70;99.90;;;;;;4966449;28;20294;-78
2022/05/31 05:21:24;;;;;;;5.13;3.50;;;9.70;99.90;;;;;;4965329;28;20669;-76
2022/05/31 05:23:52;;;;;;;4.57;3.70;;;9.70;99.90;;;;;;4966045;28;20294;-76
2022/05/31 05:26:22;;;;;;;6.70;3.70;;;9.70;99.90;;;;;;4966846;28;20262;-74
2022/05/31 05:31:40;;;;;;;5.90;3.83;;;9.90;99.90;;;;;;4972004;28;20265;-76
2022/05/31 05:34:08;;;;;;;7.00;3.80;;;9.90;99.90;;;;;;4975953;28;20262;-75
2022/05/31 05:36:36;;;;;;;4.83;3.40;;;9.90;99.90;;;;;;4976177;28;20261;-76
2022/05/31 05:39:10;;;;;;;4.00;3.60;;;9.90;99.90;;;;;;4975981;28;20310;-77
2022/05/31 05:41:41;;;;;;;3.77;3.23;;;10.00;99.90;;;;;;4976599;28;20235;-77
2022/05/31 05:44:10;;;;;;;4.73;3.30;;;10.10;99.90;;;;;;4975684;28;20210;-79
2022/05/31 05:46:38;;;;;;;5.50;3.10;;;10.30;99.90;;;;;;4976140;28;20270;-78
2022/05/31 05:49:07;;;;;;;4.50;2.67;;;10.60;99.90;;;;;;4976088;28;20227;-77
2022/05/31 05:51:35;;;;;;;4.30;2.53;;;11.20;99.90;;;;;;4976477;28;20207;-75
2022/05/31 05:54:03;;;;;;;4.30;2.00;;;12.00;99.90;;;;;;4975034;28;20246;-77
2022/05/31 05:56:32;;;;;;;2.23;1.87;;;13.00;99.90;;;;;;4975583;28;20267;-77
2022/05/31 05:59:01;;;;;;;2.97;1.90;;;14.50;99.90;;;;;;4976123;28;20291;-77
2022/05/31 06:01:35;;;;;;;2.17;1.80;;;15.30;99.90;;;;;;4974855;28;20314;-76
2022/05/31 06:04:27;;;;;;;3.07;1.80;;;16.30;99.90;;;;;;4968908;28;20223;-76
2022/05/31 06:07:03;;;;;;;3.87;2.10;;;17.10;99.90;;;;;;4975592;28;20237;-76
2022/05/31 06:09:33;;;;;;;2.73;1.77;;;17.30;99.90;;;;;;4975577;28;20226;-76
2022/05/31 06:12:06;;;;;;;2.20;1.67;;;18.40;99.90;;;;;;4973704;28;20229;-76
2022/05/31 06:14:39;;;;;;;2.43;1.60;;;19.30;99.90;;;;;;4975045;28;20215;-77
2022/05/31 06:17:12;;;;;;;1.77;1.60;;;19.20;99.90;;;;;;4972249;28;20211;-78
2022/05/31 06:19:46;;;;;;;3.60;1.70;;;20.20;99.90;;;;;;4974006;28;20257;-76
2022/05/31 06:22:15;;;;;;;1.90;1.50;;;21.30;99.60;;;;;;4975140;28;20701;-75
2022/05/31 06:24:44;;;;;;;5.73;1.70;;;21.60;97.70;;;;;;4974680;28;20253;-77
2022/05/31 06:27:12;;;;;;;4.07;1.60;;;22.00;96.50;;;;;;4975263;28;20245;-75
2022/05/31 06:29:42;;;;;;;1.63;1.50;;;21.40;95.30;;;;;;4974660;28;20237;-77
2022/05/31 06:32:10;;;;;;;2.67;1.30;;;21.60;95.60;;;;;;4975347;28;20246;-77
2022/05/31 06:34:39;;;;;;;5.83;1.70;;;21.20;97.00;;;;;;4974727;28;20207;-76
2022/05/31 06:37:10;;;;;;;2.13;1.40;;;22.20;94.80;;;;;;4975533;28;20238;-74
2022/05/31 06:39:40;;;;;;;2.77;1.40;;;22.70;93.30;;;;;;4975683;28;20218;-77
2022/05/31 06:42:10;;;;;;;1.80;1.13;;;23.70;91.40;;;;;;4976525;28;20214;-76
2022/05/31 06:44:42;;;;;;;3.40;1.40;;;24.00;90.10;;;;;;4975037;28;20660;-78
2022/05/31 06:47:11;;;;;;;2.97;1.50;;;22.90;89.90;;;;;;4973833;28;20258;-76
2022/05/31 06:49:40;;;;;;;2.27;1.50;;;22.20;90.70;;;;;;4975570;28;20231;-76
2022/05/31 06:57:45;;;;;;;1.83;1.50;;;23.30;90.40;;;;;;4973165;28;20210;-75
2022/05/31 07:00:18;;;;;;;2.63;1.50;;;23.00;90.60;;;;;;4975598;28;20231;-77
2022/05/31 07:02:47;;;;;;;1.67;1.50;;;22.90;90.60;;;;;;4975893;28;20207;-75
2022/05/31 07:05:16;;;;;;;2.42;1.80;;;22.70;91.00;;;;;;4973535;28;20223;-77
2022/05/31 07:07:44;;;;;;;1.48;1.35;;;23.20;89.60;;;;;;4975204;28;20214;-77
2022/05/31 07:10:13;;;;;;;1.65;1.40;;;22.80;89.00;;;;;;4975242;28;20326;-77
2022/05/31 07:12:42;;;;;;;3.55;1.65;;;23.10;89.00;;;;;;4975180;28;20207;-75
2022/05/31 07:15:11;;;;;;;2.42;1.70;;;23.20;89.80;;;;;;4973620;28;20214;-77
2022/05/31 07:17:41;;;;;;;1.55;1.45;;;23.10;87.90;;;;;;4974770;28;20235;-77
2022/05/31 07:20:10;;;;;;;2.67;1.40;;;22.30;90.40;;;;;;4973925;28;20293;-78
2022/05/31 07:22:39;;;;;;;3.07;1.70;;;22.70;90.60;;;;;;4974431;28;20217;-76
2022/05/31 07:25:08;;;;;;;1.60;1.50;;;23.00;90.10;;;;;;4972953;28;20242;-78
2022/05/31 07:27:36;;;;;;;2.67;1.55;;;23.40;89.00;;;;;;4974376;28;20210;-76
2022/05/31 07:30:06;;;;;;;1.65;1.50;;;23.80;87.60;;;;;;4974000;28;20671;-75
2022/05/31 07:32:34;;;;;;;3.15;1.70;;;24.30;85.30;;;;;;4974347;28;20672;-76
2022/05/31 07:35:24;;;;;;;2.10;1.50;;;24.80;84.20;;;;;;4972718;28;20214;-76
2022/05/31 07:37:52;;;;;;;2.92;1.48;;;25.00;82.70;;;;;;4973789;28;20273;-76
2022/05/31 07:40:20;;;;;;;1.85;1.20;;;25.30;82.20;;;;;;4971545;28;20227;-76
2022/05/31 07:42:48;;;;;;;2.35;1.70;;;25.70;81.00;;;;;;4973371;28;20203;-77
2022/05/31 07:45:17;;;;;;;2.88;1.70;;;25.60;80.50;;;;;;4973384;28;20210;-75
2022/05/31 07:47:46;;;;;;;2.35;1.45;;;26.00;79.10;;;;;;4973675;28;20293;-76
2022/05/31 07:50:14;;;;;;;3.28;1.60;;;25.40;77.80;;;;;;4973878;28;20226;-76
2022/05/31 07:52:43;;;;;;;2.25;1.55;;;24.70;82.30;;;;;;4973099;28;20655;-75
2022/05/31 07:55:12;;;;;;;2.85;1.38;;;25.20;81.40;;;;;;4972324;28;20697;-75
2022/05/31 08:00:26;;;;;;;1.40;1.30;;;27.00;75.30;;;;;;4969871;28;20314;-75
2022/05/31 08:02:54;;;;;;;1.98;1.67;;;26.20;75.70;;;;;;4973685;28;20315;-75
2022/05/31 08:05:23;;;;;;;1.50;1.27;;;26.10;80.40;;;;;;4972295;28;20227;-75
2022/05/31 08:07:53;;;;;;;1.40;1.30;;;26.30;76.40;;;;;;4973313;28;20235;-76
2022/05/31 08:10:41;;;;;;;1.40;1.30;;;26.40;77.70;;;;;;4971682;28;20222;-76
2022/05/31 08:13:09;;;;;;;1.77;1.35;;;25.50;77.00;;;;;;4972799;28;20672;-74
2022/05/31 08:15:38;;;;;;;1.98;1.50;;;25.90;76.40;;;;;;4972709;28;20727;-76
2022/05/31 08:18:06;;;;;;;1.67;1.48;;;25.20;81.20;;;;;;4973521;28;20294;-76
2022/05/31 08:20:34;;;;;;;2.55;1.38;;;25.80;82.00;;;;;;4973407;28;20254;-76
2022/05/31 08:23:04;;;;;;;2.58;1.30;;;26.80;75.40;;;;;;4973448;28;20250;-77
2022/05/31 08:25:33;;;;;;;3.05;1.20;;;27.20;72.70;;;;;;4972471;28;20625;-73
2022/05/31 08:28:02;;;;;;;1.95;1.30;;;27.30;76.80;;;;;;4972842;28;20270;-74
2022/05/31 08:30:31;;;;;;;1.83;1.15;;;27.90;72.10;;;;;;4972678;28;20676;-76
2022/05/31 08:33:00;;;;;;;2.85;1.30;;;28.10;72.10;;;;;;4973128;28;20207;-76
2022/05/31 08:35:28;;;;;;;2.90;1.30;;;28.20;71.70;;;;;;4972181;28;20735;-77
2022/05/31 08:38:17;;;;;;;2.63;1.17;;;28.00;74.00;;;;;;4967569;28;20217;-76
2022/05/31 08:40:58;;;;;;;2.35;1.00;;;27.40;71.10;;;;;;4972725;28;20265;-77
2022/05/31 08:43:36;;;;;;;1.65;1.20;;;27.20;66.80;;;;;;4968845;28;20246;-75
2022/05/31 08:46:12;;;;;;;1.23;1.10;;;27.40;68.40;;;;;;4972499;28;20625;-76
2022/05/31 08:48:52;;;;;;;1.70;1.10;;;27.30;65.10;;;;;;4973011;28;20214;-76
2022/05/31 08:57:07;;;;;;;1.33;1.05;;;27.10;68.40;;;;;;4972332;28;20218;-75
2022/05/31 08:59:40;;;;;;;2.13;1.13;;;27.80;64.60;;;;;;4972407;28;20293;-76
2022/05/31 09:02:17;;;;;;;1.70;1.00;;;28.00;66.30;;;;;;4967079;28;20357;-77
2022/05/31 09:05:04;;;;;;;3.05;1.13;;;28.20;66.40;;;;;;4973847;28;20218;-76
2022/05/31 09:07:37;;;;;;;1.15;1.00;;;28.90;59.60;;;;;;4977099;28;20222;-77
2022/05/31 09:10:13;;;;;;;1.63;1.10;;;28.30;58.20;;;;;;4976484;28;20631;-78
2022/05/31 09:12:46;;;;;;;2.55;0.90;;;28.60;62.50;;;;;;4976395;28;20209;-77
2022/05/31 09:15:19;;;;;;;2.08;1.20;;;28.90;63.40;;;;;;4975603;28;20285;-77
2022/05/31 09:17:58;;;;;;;2.72;0.80;;;28.60;61.00;;;;;;4976259;28;20202;-76
2022/05/31 09:20:33;;;;;;;1.60;1.10;;;28.60;62.90;;;;;;4976439;28;20199;-76
2022/05/31 09:23:02;;;;;;;2.45;1.10;;;27.90;61.80;;;;;;4972084;28;20640;-78
2022/05/31 09:25:38;;;;;;;3.42;1.35;;;28.30;65.60;;;;;;4976415;28;20242;-77
2022/05/31 09:28:18;;;;;;;2.95;1.00;;;28.30;60.50;;;;;;4973007;28;20603;-74
2022/05/31 09:30:49;;;;;;;4.32;0.95;;;28.50;64.30;;;;;;4976181;28;20269;-74
2022/05/31 09:33:24;;;;;;;1.33;1.10;;;29.30;59.10;;;;;;4975488;28;20310;-76
2022/05/31 09:36:17;;;;;;;3.13;1.25;;;28.70;59.70;;;;;;4975907;28;20238;-74
2022/05/31 09:39:06;;;;;;;2.05;1.20;;;28.60;59.10;;;;;;4976338;28;20697;-76
2022/05/31 09:41:41;;;;;;;1.05;0.95;;;27.30;60.30;;;;;;4974055;28;20671;-76
2022/05/31 09:44:17;;;;;;;1.55;1.20;;;27.60;60.70;;;;;;4975695;28;20207;-77
2022/05/31 09:46:51;;;;;;;1.75;0.90;;;28.20;61.40;;;;;;4964533;28;20277;-76
2022/05/31 09:49:30;;;;;;;1.95;1.20;;;28.20;60.40;;;;;;4973742;28;20209;-77
2022/05/31 09:51:59;;;;;;;0.95;0.90;;;29.00;59.10;;;;;;4971758;28;20218;-75
2022/05/31 09:57:29;;;;;;;1.52;1.00;;;27.80;59.60;;;;;;4974168;28;20210;-77
2022/05/31 10:00:03;;;;;;;1.20;0.95;;;28.10;61.50;;;;;;4972122;28;20287;-76
2022/05/31 10:02:35;;;;;;;1.10;0.95;;;27.40;61.90;;;;;;4975463;28;20206;-77
2022/05/31 10:05:14;;;;;;;2.15;1.10;;;28.20;60.60;;;;;;4974019;28;20215;-77
2022/05/31 10:07:43;;;;;;;2.40;1.30;;;28.50;62.60;;;;;;4972012;28;20234;-76
2022/05/31 10:10:15;;;;;;;2.10;1.30;;;28.80;66.40;;;;;;4975106;28;20266;-76
2022/05/31 10:12:53;;;;;;;5.18;1.20;;;28.40;60.00;;;;;;4975299;28;20759;-74
2022/05/31 10:15:42;;;;;;;1.55;1.00;;;28.60;60.90;;;;;;4974287;28;20680;-74
2022/05/31 10:18:13;;;;;;;1.60;1.00;;;29.30;59.30;;;;;;4969534;28;20703;-75
2022/05/31 10:20:54;;;;;;;1.65;1.00;;;29.30;64.00;;;;;;4970752;28;20606;-75
2022/05/31 10:23:24;;;;;;;2.72;1.08;;;30.00;60.20;;;;;;4974986;28;20672;-75
2022/05/31 10:25:55;;;;;;;1.27;1.20;;;29.50;57.20;;;;;;4975346;28;20253;-76
2022/05/31 10:28:29;;;;;;;1.60;1.10;;;28.90;59.30;;;;;;4975541;28;20207;-76
2022/05/31 10:31:04;;;;;;;1.40;1.15;;;29.30;58.50;;;;;;4975031;28;20223;-76
2022/05/31 10:33:34;;;;;;;3.22;1.30;;;29.70;57.60;;;;;;4974886;28;20210;-77
2022/05/31 10:36:17;;;;;;;1.08;1.00;;;29.50;59.20;;;;;;4975353;28;20213;-75
2022/05/31 10:38:48;;;;;;;1.55;1.20;;;29.40;57.70;;;;;;4975527;28;20236;-75
2022/05/31 10:41:23;;;;;;;2.20;1.15;;;29.50;57.60;;;;;;4972747;28;20265;-76
2022/05/31 10:44:17;;;;;;;5.28;1.13;;;29.00;57.40;;;;;;4974312;28;20665;-75
2022/05/31 10:46:52;;;;;;;3.78;1.20;;;28.60;59.20;;;;;;4973278;28;20750;-73
2022/05/31 10:49:22;;;;;;;2.25;1.10;;;29.00;61.10;;;;;;4975022;28;20649;-74
2022/05/31 10:52:00;;;;;;;1.00;1.00;;;29.50;58.80;;;;;;4975490;28;20255;-77
2022/05/31 10:54:54;;;;;;;1.15;1.00;;;29.40;59.10;;;;;;4974116;28;20226;-77
2022/05/31 10:57:39;;;;;;;1.33;1.00;;;29.10;61.20;;;;;;4975075;28;20207;-76
2022/05/31 11:00:15;;;;;;;1.40;0.95;;;29.30;62.80;;;;;;4974613;28;20325;-73
2022/05/31 11:03:15;;;;;;;1.92;1.23;;;29.20;64.70;;;;;;4968488;28;20661;-75
2022/05/31 11:05:53;;;;;;;1.42;1.00;;;29.10;62.50;;;;;;4971899;28;20297;-77
2022/05/31 11:11:29;;;;;;;2.30;1.30;;;29.00;57.80;;;;;;4970011;28;20269;-75
2022/05/31 11:14:22;;;;;;;2.03;1.48;;;27.80;57.70;;;;;;4971284;28;20591;-76
2022/05/31 11:17:02;;;;;;;2.45;1.10;;;27.50;60.10;;;;;;4975281;28;20207;-78
2022/05/31 11:19:40;;;;;;;2.25;1.02;;;27.70;56.00;;;;;;4974410;28;20258;-73
2022/05/31 11:22:21;;;;;;;1.67;1.02;;;27.70;54.30;;;;;;4974857;28;20235;-75
2022/05/31 11:25:05;;;;;;;2.42;0.95;;;28.00;58.00;;;;;;4972095;28;20281;-77
2022/05/31 11:27:43;;;;;;;2.05;1.08;;;28.30;56.30;;;;;;4969457;28;20637;-77
2022/05/31 11:30:21;;;;;;;2.75;1.35;;;28.40;57.30;;;;;;4974025;28;20214;-74
2022/05/31 11:33:27;;;;;;;1.38;1.00;;;28.30;61.50;;;;;;4973669;28;20234;-77
2022/05/31 11:36:07;;;;;;;1.83;1.10;;;28.00;61.50;;;;;;4974395;28;20298;-75
2022/05/31 11:38:46;;;;;;;1.75;1.00;;;27.80;61.90;;;;;;4973849;28;20213;-74
2022/05/31 11:41:24;;;;;;;2.85;1.20;;;27.80;58.90;;;;;;4974450;28;20227;-74
2022/05/31 11:44:33;;;;;;;1.40;1.00;;;27.60;61.00;;;;;;4974318;28;20289;-74
2022/05/31 11:47:11;;;;;;;3.25;1.30;;;27.60;64.80;;;;;;4971110;28;20215;-73
2022/05/31 11:49:49;;;;;;;2.85;1.20;;;27.10;62.30;;;;;;4973775;28;20326;-73
2022/05/31 11:52:45;;;;;;;1.80;1.13;;;26.20;57.70;;;;;;4973663;28;20281;-74
2022/05/31 11:55:28;;;;;;;2.30;1.40;;;25.80;62.10;;;;;;4973761;28;20273;-74
2022/05/31 11:58:21;;;;;;;2.70;1.20;;;25.60;62.70;;;;;;4974643;28;20215;-74
2022/05/31 12:01:01;;;;;;;1.20;1.00;;;25.70;62.70;;;;;;4971301;28;20222;-73
2022/05/31 12:03:38;;;;;;;2.63;1.10;;;25.20;61.20;;;;;;4972817;28;20757;-72
2022/05/31 12:06:18;;;;;;;3.10;1.20;;;25.30;66.50;;;;;;4973642;28;20207;-75
2022/05/31 12:08:52;;;;;;;1.63;1.40;;;25.50;68.80;;;;;;4973633;28;20207;-74
2022/05/31 12:11:27;;;;;;;1.97;1.10;;;25.00;67.70;;;;;;4973233;28;20218;-75
2022/05/31 12:13:59;;;;;;;3.53;1.23;;;24.70;63.00;;;;;;4973333;28;20298;-75
2022/05/31 12:16:28;;;;;;;1.80;1.30;;;24.40;69.70;;;;;;4969354;28;20288;-74
2022/05/31 12:19:08;;;;;;;1.80;1.20;;;24.20;71.90;;;;;;4973497;28;20213;-73
2022/05/31 12:21:43;;;;;;;3.53;1.30;;;24.20;71.80;;;;;;4974253;28;20231;-74
2022/05/31 12:24:21;;;;;;;3.23;1.40;;;24.00;71.30;;;;;;4972476;28;20227;-77
2022/05/31 12:26:53;;;;;;;3.37;1.23;;;24.00;68.30;;;;;;4973292;28;20250;-76
2022/05/31 12:29:26;;;;;;;5.03;1.50;;;24.10;68.80;;;;;;4972039;28;20226;-76
2022/05/31 12:32:26;;;;;;;3.27;1.43;;;24.00;69.90;;;;;;4973067;28;20213;-77
2022/05/31 12:34:55;;;;;;;1.97;1.20;;;23.70;74.00;;;;;;4968428;28;20656;-76
2022/05/31 12:37:25;;;;;;;5.00;1.47;;;23.70;67.90;;;;;;4973377;28;20239;-75
2022/05/31 12:40:25;;;;;;;2.00;1.20;;;24.00;77.20;;;;;;4972942;28;20317;-74
2022/05/31 12:42:53;;;;;;;2.60;1.17;;;24.20;72.80;;;;;;4968912;28;20211;-75
2022/05/31 12:45:41;;;;;;;2.20;1.10;;;23.60;74.00;;;;;;4973307;28;20276;-75
2022/05/31 12:48:23;;;;;;;2.97;1.17;;;23.80;79.90;;;;;;4974523;28;20210;-75
2022/05/31 12:51:20;;;;;;;3.27;1.07;;;24.10;77.40;;;;;;4973272;28;20254;-76
2022/05/31 12:54:06;;;;;;;3.47;1.40;;;24.10;77.60;;;;;;4968590;28;20218;-77
2022/05/31 12:56:54;;;;;;;2.63;1.30;;;24.10;76.80;;;;;;4973207;28;20219;-76
2022/05/31 12:59:49;;;;;;;3.40;1.40;;;23.80;77.70;;;;;;4973189;28;20246;-74
2022/05/31 13:02:29;;;;;;;1.40;1.30;;;23.70;74.20;;;;;;4973515;28;20613;-77
2022/05/31 13:05:00;;;;;;;2.30;1.30;;;24.00;76.10;;;;;;4972511;28;20322;-75
2022/05/31 13:07:42;;;;;;;7.50;1.40;;;24.00;80.30;;;;;;4973770;28;20218;-77
2022/05/31 13:19:34;;;;;;;2.70;1.20;;;23.50;74.50;;;;;;4972767;28;20246;-78
2022/05/31 13:19:38;;;;;;;4.57;1.30;;;24.10;69.90;;;;;;4973129;28;20222;-77
2022/05/31 13:22:16;;;;;;;2.57;1.20;;;24.00;69.00;;;;;;4973414;28;20610;-75
2022/05/31 13:24:51;;;;;;;3.63;1.40;;;24.00;69.30;;;;;;4971631;28;20273;-74
2022/05/31 13:27:26;;;;;;;5.03;1.30;;;24.50;70.30;;;;;;4973426;28;20412;-75
2022/05/31 13:30:13;;;;;;;1.63;1.10;;;24.70;70.00;;;;;;4967035;28;20245;-77
2022/05/31 13:32:42;;;;;;;2.23;1.30;;;25.00;69.30;;;;;;4972969;28;20225;-73
2022/05/31 13:35:13;;;;;;;2.90;1.50;;;25.10;67.60;;;;;;4973089;28;20215;-74
2022/05/31 13:37:57;;;;;;;1.57;1.20;;;25.30;73.60;;;;;;4974181;28;20215;-73
2022/05/31 13:40:32;;;;;;;1.63;1.20;;;25.50;69.10;;;;;;4973670;28;20738;-76
2022/05/31 13:43:05;;;;;;;1.57;1.30;;;25.50;68.60;;;;;;4974074;28;20652;-75
2022/05/31 13:45:35;;;;;;;2.00;1.50;;;24.90;73.50;;;;;;4971141;28;20218;-74
2022/05/31 13:48:11;;;;;;;2.43;1.43;;;24.60;79.90;;;;;;4973157;28;20210;-75
2022/05/31 13:50:55;;;;;;;1.37;1.20;;;24.40;71.40;;;;;;4974629;28;20241;-75
2022/05/31 13:53:24;;;;;;;4.97;1.67;;;24.50;68.40;;;;;;4977416;28;20751;-75
2022/05/31 13:55:59;;;;;;;5.93;1.40;;;24.40;72.20;;;;;;4978186;28;20243;-74
2022/05/31 13:58:36;;;;;;;2.47;1.30;;;24.20;74.20;;;;;;4977480;28;20221;-75
2022/05/31 14:01:26;;;;;;;2.67;1.47;;;24.10;71.30;;;;;;4975347;28;20270;-75
2022/05/31 14:03:57;;;;;;;3.70;1.70;;;23.70;70.90;;;;;;4974257;28;20206;-75
2022/05/31 14:06:34;;;;;;;3.08;1.60;;;23.50;73.80;;;;;;4971694;28;20573;-73
2022/05/31 14:09:06;;;;;;;2.03;1.47;;;23.40;75.10;;;;;;4977614;28;20211;-76
2022/05/31 14:11:41;;;;;;;4.97;1.60;;;23.30;71.50;;;;;;4979675;28;20378;-73
2022/05/31 14:14:27;;;;;;;2.37;1.33;;;23.20;73.10;;;;;;4979761;28;20222;-76
2022/05/31 14:16:57;;;;;;;2.17;1.20;;;23.00;79.60;;;;;;4980008;28;20206;-77
2022/05/31 14:19:27;;;;;;;2.43;1.33;;;23.00;76.50;;;;;;4977522;28;20215;-72
2022/05/31 14:21:59;;;;;;;5.60;1.30;;;22.90;77.40;;;;;;4968994;28;20207;-75
2022/05/31 14:24:32;;;;;;;2.73;1.50;;;22.80;75.30;;;;;;4972245;28;20262;-75
2022/05/31 14:27:05;;;;;;;3.57;1.40;;;22.40;81.50;;;;;;4969936;28;20262;-75
2022/05/31 14:29:36;;;;;;;3.13;1.63;;;22.20;82.30;;;;;;4973704;28;20210;-75
2022/05/31 14:32:17;;;;;;;4.90;1.70;;;22.00;85.20;;;;;;4969254;28;20216;-76
2022/05/31 14:34:48;;;;;;;2.30;1.53;;;21.70;90.10;;;;;;4970415;28;20225;-74
2022/05/31 14:37:40;;;;;;;3.83;1.90;;;21.10;92.50;;;;;;4970067;28;20837;-76
2022/05/31 14:40:13;;;;;;;5.63;1.70;;;20.60;92.60;;;;;;4971529;28;20235;-77
2022/05/31 14:42:55;;;;;;;3.17;1.70;;;20.30;96.40;;;;;;4969371;28;20661;-75
2022/05/31 14:45:38;;;;;;;4.73;1.60;;;20.20;95.10;;;;;;4975776;28;20576;-76
2022/05/31 14:48:29;;;;;;;4.33;1.70;;;20.10;99.30;;;;;;4978297;28;20337;-72
2022/05/31 14:50:58;;;;;;;2.40;1.50;;;20.00;98.50;;;;;;4976941;28;20759;-76
2022/05/31 14:53:35;;;;;;;1.73;1.40;;;20.00;98.30;;;;;;4976088;28;20262;-76
2022/05/31 14:56:04;;;;;;;4.17;1.60;;;20.10;98.10;;;;;;4975249;28;20207;-76
2022/05/31 14:58:37;;;;;;;1.60;1.47;;;20.20;98.70;;;;;;4980053;28;20230;-74
2022/05/31 15:01:15;;;;;;;2.37;1.40;;;20.20;98.80;;;;;;4970584;28;20239;-73
2022/05/31 15:03:47;;;;;;;3.30;1.50;;;20.20;98.60;;;;;;4979021;28;20241;-74
2022/05/31 15:06:26;;;;;;;6.43;1.70;;;20.10;99.30;;;;;;4977981;28;20299;-75
2022/05/31 15:09:10;;;;;;;2.87;1.73;;;20.00;99.90;;;;;;4975904;28;20214;-74
2022/05/31 15:20:05;;;;;;;3.07;1.80;;;19.30;99.90;;;;;;4974332;28;20268;-74
2022/05/31 15:22:34;;;;;;;3.60;1.80;;;19.20;99.90;;;;;;4976330;28;20215;-75
2022/05/31 15:25:03;;;;;;;3.47;1.63;;;19.20;99.90;;;;;;4979505;28;20238;-76
2022/05/31 15:27:34;;;;;;;4.10;1.60;;;19.10;99.90;;;;;;4979213;28;20238;-75
2022/05/31 15:30:03;;;;;;;5.93;1.60;;;19.10;99.90;;;;;;4975905;28;20215;-76
2022/05/31 15:32:33;;;;;;;3.90;1.73;;;19.00;99.90;;;;;;4976121;28;20215;-75
2022/05/31 15:35:01;;;;;;;2.33;1.27;;;18.90;99.90;;;;;;4976786;28;20230;-76
2022/05/31 15:37:50;;;;;;;3.70;2.27;;;18.90;99.90;;;;;;4974003;28;20680;-76
2022/05/31 15:40:21;;;;;;;4.77;1.63;;;18.90;99.90;;;;;;4973229;28;20824;-78
2022/05/31 15:42:49;;;;;;;2.87;1.37;;;18.90;99.90;;;;;;4970475;28;20208;-77
2022/05/31 15:45:17;;;;;;;4.53;1.50;;;19.00;99.90;;;;;;4963321;28;20223;-76
2022/05/31 15:47:48;;;;;;;2.87;1.50;;;19.10;99.90;;;;;;4973066;28;20207;-76
2022/05/31 15:50:16;;;;;;;2.00;1.30;;;19.10;99.90;;;;;;4973500;28;20215;-74
2022/05/31 15:52:47;;;;;;;2.67;1.50;;;19.10;99.90;;;;;;4971475;28;20223;-75
2022/05/31 15:55:18;;;;;;;2.53;1.50;;;19.00;99.90;;;;;;4966104;28;20743;-78
2022/05/31 15:57:48;;;;;;;3.93;1.50;;;19.00;99.90;;;;;;4970789;28;20610;-76
2022/05/31 16:00:20;;;;;;;2.60;1.40;;;18.90;99.90;;;;;;4963351;28;20630;-76
2022/05/31 16:02:50;;;;;;;3.50;1.30;;;18.80;99.90;;;;;;4960651;28;20287;-76
2022/05/31 16:05:20;;;;;;;2.03;1.30;;;18.80;99.80;;;;;;4960885;28;20222;-75
2022/05/31 16:07:51;;;;;;;2.77;1.40;;;18.80;99.90;;;;;;4968744;28;20222;-75
2022/05/31 16:10:22;;;;;;;2.23;1.30;;;18.80;99.90;;;;;;4960514;28;20274;-78
2022/05/31 16:12:52;;;;;;;3.37;1.73;;;18.80;99.10;;;;;;4960936;28;20203;-77
2022/05/31 16:15:20;;;;;;;3.57;1.50;;;18.90;99.90;;;;;;4961681;28;20577;-76
2022/05/31 16:17:49;;;;;;;2.07;1.13;;;19.10;99.90;;;;;;4965154;28;20764;-77
2022/05/31 16:20:18;;;;;;;3.23;1.40;;;19.20;98.50;;;;;;4962674;28;20298;-78
2022/05/31 16:22:49;;;;;;;4.50;1.47;;;19.30;97.30;;;;;;4964058;28;20204;-76
2022/05/31 16:25:20;;;;;;;3.30;1.30;;;19.30;97.80;;;;;;4961353;28;20204;-76
2022/05/31 16:27:50;;;;;;;3.87;1.40;;;19.20;97.70;;;;;;4964851;28;20231;-75
2022/05/31 16:30:20;;;;;;;2.23;1.33;;;19.10;98.20;;;;;;4968436;28;20704;-76
2022/05/31 16:32:50;;;;;;;2.63;1.30;;;19.00;98.20;;;;;;4973149;28;20570;-77
2022/05/31 16:35:18;;;;;;;3.63;1.53;;;19.10;99.70;;;;;;4971013;28;20314;-78
2022/05/31 16:43:23;;;;;;;4.17;1.43;;;19.10;99.90;;;;;;4963453;28;20242;-75
2022/05/31 16:45:51;;;;;;;1.83;1.40;;;19.00;99.90;;;;;;4972097;28;20239;-76
2022/05/31 16:48:42;;;;;;;3.93;1.67;;;19.00;99.90;;;;;;4964299;28;20556;-73
2022/05/31 16:51:30;;;;;;;3.20;1.40;;;19.00;99.90;;;;;;4972062;28;20211;-76
2022/05/31 16:54:03;;;;;;;3.13;1.23;;;19.00;99.90;;;;;;4971217;28;20206;-77
2022/05/31 16:56:34;;;;;;;3.53;1.40;;;19.00;99.90;;;;;;4968057;28;20206;-74
2022/05/31 16:59:08;;;;;;;1.63;1.40;;;19.10;99.90;;;;;;4959506;28;20257;-75
2022/05/31 17:01:36;;;;;;;1.40;1.13;;;18.90;99.90;;;;;;4960836;28;20247;-76
2022/05/31 17:04:06;;;;;;;1.93;1.33;;;18.90;99.90;;;;;;4964048;28;20246;-74
2022/05/31 17:14:58;;;;;;;1.73;1.10;;;18.70;99.90;;;;;;4962129;28;20619;-78
2022/05/31 17:17:26;;;;;;;2.47;1.20;;;18.60;99.90;;;;;;4961039;28;20286;-77
2022/05/31 17:20:16;;;;;;;2.30;1.60;;;18.60;99.90;;;;;;4957194;28;20217;-78
2022/05/31 17:22:46;;;;;;;3.63;1.50;;;18.60;99.90;;;;;;4956886;28;20207;-74
2022/05/31 17:25:19;;;;;;;2.23;1.33;;;18.50;99.90;;;;;;4970928;28;20207;-74
2022/05/31 17:27:47;;;;;;;3.03;1.50;;;18.40;99.90;;;;;;4970876;28;20657;-76
2022/05/31 17:30:15;;;;;;;1.47;1.30;;;18.30;99.60;;;;;;4968097;28;20217;-75
2022/05/31 17:32:51;;;;;;;3.40;1.40;;;18.30;99.90;;;;;;4971329;28;20231;-76
2022/05/31 17:35:21;;;;;;;4.10;1.90;;;18.20;99.90;;;;;;4967221;28;20231;-77
2022/05/31 17:37:49;;;;;;;1.50;1.30;;;18.20;99.90;;;;;;4961422;28;20596;-76
2022/05/31 17:40:17;;;;;;;4.30;1.30;;;18.10;99.90;;;;;;4969534;28;20230;-78
2022/05/31 17:42:47;;;;;;;3.73;1.50;;;18.10;99.90;;;;;;4963915;28;20215;-77
2022/05/31 17:45:16;;;;;;;3.47;1.53;;;18.00;99.90;;;;;;4965269;28;20228;-77
2022/05/31 17:47:44;;;;;;;2.67;1.43;;;18.00;99.90;;;;;;4960400;28;20235;-77
2022/05/31 17:50:12;;;;;;;3.47;1.60;;;17.90;99.90;;;;;;4961219;28;20728;-78
2022/05/31 17:52:42;;;;;;;2.30;1.53;;;17.80;99.90;;;;;;4961964;28;20243;-75
2022/05/31 17:55:11;;;;;;;3.73;1.77;;;17.60;99.90;;;;;;4965405;28;20250;-77
2022/05/31 17:57:39;;;;;;;4.10;1.87;;;17.40;99.90;;;;;;4964665;28;20721;-77
2022/05/31 18:00:11;;;;;;;4.17;1.90;;;17.20;99.90;;;;;;4963754;28;20643;-75
2022/05/31 18:02:40;;;;;;;3.37;1.70;;;17.10;99.90;;;;;;4964066;28;20213;-78
2022/05/31 18:05:09;;;;;;;3.07;1.70;;;16.80;99.90;;;;;;4968812;28;20704;-77
2022/05/31 18:07:37;;;;;;;2.10;1.63;;;16.50;99.90;;;;;;4971450;28;20649;-77
2022/05/31 18:10:07;;;;;;;3.13;1.70;;;16.20;99.90;;;;;;4974051;28;20242;-81
2022/05/31 18:12:36;;;;;;;2.03;1.73;;;16.00;99.90;;;;;;4972790;28;20620;-76
2022/05/31 18:15:05;;;;;;;3.40;2.00;;;15.90;99.90;;;;;;4975221;28;20231;-76
2022/05/31 18:17:33;;;;;;;3.27;2.00;;;15.80;99.90;;;;;;4973234;28;20211;-77